sensor_id;sensor_type;location;lat;lon;timestamp;P1;durP1;ratioP1;P2;durP2;ratioP2
38465;SDS011;24244;51.950;5.902;2024-02-28T00:02:04;22.27;;;9.68;;
38465;SDS011;24244;51.950;5.902;2024-02-28T00:04:31;25.45;;;11.35;;
38465;SDS011;24244;51.950;5.902;2024-02-28T00:06:58;21.83;;;8.95;;
38465;SDS011;24244;51.950;5.902;2024-02-28T00:09:25;24.10;;;11.40;;
38465;SDS011;24244;51.950;5.902;2024-02-28T00:11:52;23.08;;;9.85;;
38465;SDS011;24244;51.950;5.902;2024-02-28T00:14:19;22.52;;;9.43;;
38465;SDS011;24244;51.950;5.902;2024-02-28T00:16:47;20.60;;;10.02;;
38465;SDS011;24244;51.950;5.902;2024-02-28T00:19:14;21.48;;;8.55;;
38465;SDS011;24244;51.950;5.902;2024-02-28T00:21:43;22.98;;;10.18;;
38465;SDS011;24244;51.950;5.902;2024-02-28T00:24:10;26.42;;;10.98;;
38465;SDS011;24244;51.950;5.902;2024-02-28T00:26:37;19.33;;;8.93;;
38465;SDS011;24244;51.950;5.902;2024-02-28T00:29:07;20.75;;;10.35;;
38465;SDS011;24244;51.950;5.902;2024-02-28T00:31:34;29.98;;;10.95;;
38465;SDS011;24244;51.950;5.902;2024-02-28T00:34:02;23.65;;;11.05;;
38465;SDS011;24244;51.950;5.902;2024-02-28T00:36:29;19.65;;;8.90;;
38465;SDS011;24244;51.950;5.902;2024-02-28T00:39:13;21.73;;;8.82;;
38465;SDS011;24244;51.950;5.902;2024-02-28T00:41:40;20.08;;;10.93;;
38465;SDS011;24244;51.950;5.902;2024-02-28T00:44:07;26.42;;;9.57;;
38465;SDS011;24244;51.950;5.902;2024-02-28T00:46:33;23.20;;;10.05;;
38465;SDS011;24244;51.950;5.902;2024-02-28T00:49:00;26.08;;;10.98;;
38465;SDS011;24244;51.950;5.902;2024-02-28T00:51:28;23.83;;;9.80;;
38465;SDS011;24244;51.950;5.902;2024-02-28T00:53:55;22.98;;;9.80;;
38465;SDS011;24244;51.950;5.902;2024-02-28T00:56:22;21.52;;;9.98;;
38465;SDS011;24244;51.950;5.902;2024-02-28T00:58:50;22.75;;;9.15;;
38465;SDS011;24244;51.950;5.902;2024-02-28T01:01:17;20.27;;;9.48;;
38465;SDS011;24244;51.950;5.902;2024-02-28T01:03:44;19.35;;;8.55;;
38465;SDS011;24244;51.950;5.902;2024-02-28T01:06:11;27.25;;;11.52;;
38465;SDS011;24244;51.950;5.902;2024-02-28T01:08:39;24.45;;;10.48;;
38465;SDS011;24244;51.950;5.902;2024-02-28T01:11:06;26.73;;;10.88;;
38465;SDS011;24244;51.950;5.902;2024-02-28T01:13:33;26.40;;;10.90;;
38465;SDS011;24244;51.950;5.902;2024-02-28T01:16:00;23.15;;;10.43;;
38465;SDS011;24244;51.950;5.902;2024-02-28T01:18:26;19.88;;;7.65;;
38465;SDS011;24244;51.950;5.902;2024-02-28T01:20:57;23.83;;;10.02;;
38465;SDS011;24244;51.950;5.902;2024-02-28T01:23:23;23.83;;;10.10;;
38465;SDS011;24244;51.950;5.902;2024-02-28T01:25:51;21.70;;;10.20;;
38465;SDS011;24244;51.950;5.902;2024-02-28T01:28:18;20.77;;;9.82;;
38465;SDS011;24244;51.950;5.902;2024-02-28T01:30:45;23.60;;;10.75;;
38465;SDS011;24244;51.950;5.902;2024-02-28T01:33:12;22.90;;;9.75;;
38465;SDS011;24244;51.950;5.902;2024-02-28T01:35:40;22.15;;;10.10;;
38465;SDS011;24244;51.950;5.902;2024-02-28T01:38:07;21.70;;;9.65;;
38465;SDS011;24244;51.950;5.902;2024-02-28T01:40:33;24.23;;;10.27;;
38465;SDS011;24244;51.950;5.902;2024-02-28T01:43:06;21.90;;;9.30;;
38465;SDS011;24244;51.950;5.902;2024-02-28T01:45:33;20.05;;;8.70;;
38465;SDS011;24244;51.950;5.902;2024-02-28T01:48:00;21.92;;;9.95;;
38465;SDS011;24244;51.950;5.902;2024-02-28T01:50:27;24.67;;;11.43;;
38465;SDS011;24244;51.950;5.902;2024-02-28T01:52:54;21.13;;;10.38;;
38465;SDS011;24244;51.950;5.902;2024-02-28T01:55:21;25.00;;;10.57;;
38465;SDS011;24244;51.950;5.902;2024-02-28T01:57:48;23.55;;;10.05;;
38465;SDS011;24244;51.950;5.902;2024-02-28T02:00:17;23.13;;;10.90;;
38465;SDS011;24244;51.950;5.902;2024-02-28T02:02:44;26.88;;;9.50;;
38465;SDS011;24244;51.950;5.902;2024-02-28T02:05:12;30.10;;;10.98;;
38465;SDS011;24244;51.950;5.902;2024-02-28T02:07:38;23.92;;;10.77;;
38465;SDS011;24244;51.950;5.902;2024-02-28T02:10:06;24.25;;;10.45;;
38465;SDS011;24244;51.950;5.902;2024-02-28T02:12:35;27.92;;;13.27;;
38465;SDS011;24244;51.950;5.902;2024-02-28T02:15:03;23.50;;;10.45;;
38465;SDS011;24244;51.950;5.902;2024-02-28T02:17:31;31.17;;;13.00;;
38465;SDS011;24244;51.950;5.902;2024-02-28T02:19:58;21.52;;;9.68;;
38465;SDS011;24244;51.950;5.902;2024-02-28T02:22:25;23.65;;;10.63;;
38465;SDS011;24244;51.950;5.902;2024-02-28T02:24:57;25.95;;;11.85;;
38465;SDS011;24244;51.950;5.902;2024-02-28T02:27:24;24.90;;;10.60;;
38465;SDS011;24244;51.950;5.902;2024-02-28T02:29:52;25.98;;;12.00;;
38465;SDS011;24244;51.950;5.902;2024-02-28T02:32:19;26.55;;;10.40;;
38465;SDS011;24244;51.950;5.902;2024-02-28T02:34:46;24.20;;;10.95;;
38465;SDS011;24244;51.950;5.902;2024-02-28T02:37:12;24.35;;;10.50;;
38465;SDS011;24244;51.950;5.902;2024-02-28T02:39:39;27.85;;;11.13;;
38465;SDS011;24244;51.950;5.902;2024-02-28T02:42:07;27.92;;;12.02;;
38465;SDS011;24244;51.950;5.902;2024-02-28T02:44:34;27.25;;;11.55;;
38465;SDS011;24244;51.950;5.902;2024-02-28T02:47:01;24.75;;;12.02;;
38465;SDS011;24244;51.950;5.902;2024-02-28T02:49:28;25.65;;;11.27;;
38465;SDS011;24244;51.950;5.902;2024-02-28T02:51:54;24.40;;;10.90;;
38465;SDS011;24244;51.950;5.902;2024-02-28T02:54:21;29.08;;;11.48;;
38465;SDS011;24244;51.950;5.902;2024-02-28T02:56:48;28.90;;;12.65;;
38465;SDS011;24244;51.950;5.902;2024-02-28T02:59:16;27.25;;;10.30;;
38465;SDS011;24244;51.950;5.902;2024-02-28T03:01:43;26.10;;;11.70;;
38465;SDS011;24244;51.950;5.902;2024-02-28T03:04:10;21.15;;;10.45;;
38465;SDS011;24244;51.950;5.902;2024-02-28T03:06:36;22.50;;;11.30;;
38465;SDS011;24244;51.950;5.902;2024-02-28T03:09:03;22.67;;;10.07;;
38465;SDS011;24244;51.950;5.902;2024-02-28T03:11:30;23.30;;;10.63;;
38465;SDS011;24244;51.950;5.902;2024-02-28T03:13:57;26.83;;;10.95;;
38465;SDS011;24244;51.950;5.902;2024-02-28T03:16:25;21.27;;;10.57;;
38465;SDS011;24244;51.950;5.902;2024-02-28T03:18:52;23.50;;;10.57;;
38465;SDS011;24244;51.950;5.902;2024-02-28T03:21:18;23.20;;;9.55;;
38465;SDS011;24244;51.950;5.902;2024-02-28T03:23:47;23.90;;;10.27;;
38465;SDS011;24244;51.950;5.902;2024-02-28T03:26:13;22.30;;;10.02;;
38465;SDS011;24244;51.950;5.902;2024-02-28T03:28:40;23.90;;;9.85;;
38465;SDS011;24244;51.950;5.902;2024-02-28T03:31:07;24.10;;;10.77;;
38465;SDS011;24244;51.950;5.902;2024-02-28T03:33:35;22.15;;;9.88;;
38465;SDS011;24244;51.950;5.902;2024-02-28T03:36:02;21.65;;;10.13;;
38465;SDS011;24244;51.950;5.902;2024-02-28T03:38:29;25.25;;;10.38;;
38465;SDS011;24244;51.950;5.902;2024-02-28T03:40:56;20.15;;;10.57;;
38465;SDS011;24244;51.950;5.902;2024-02-28T03:43:22;20.35;;;9.13;;
38465;SDS011;24244;51.950;5.902;2024-02-28T03:45:49;20.25;;;10.07;;
38465;SDS011;24244;51.950;5.902;2024-02-28T03:48:16;23.50;;;9.95;;
38465;SDS011;24244;51.950;5.902;2024-02-28T03:50:45;21.65;;;9.90;;
38465;SDS011;24244;51.950;5.902;2024-02-28T03:53:12;20.98;;;10.55;;
38465;SDS011;24244;51.950;5.902;2024-02-28T03:55:38;20.67;;;8.70;;
38465;SDS011;24244;51.950;5.902;2024-02-28T03:58:05;20.00;;;10.50;;
38465;SDS011;24244;51.950;5.902;2024-02-28T04:00:35;23.48;;;10.95;;
38465;SDS011;24244;51.950;5.902;2024-02-28T04:03:02;23.02;;;10.35;;
38465;SDS011;24244;51.950;5.902;2024-02-28T04:05:30;17.98;;;8.05;;
38465;SDS011;24244;51.950;5.902;2024-02-28T04:07:58;19.77;;;9.10;;
38465;SDS011;24244;51.950;5.902;2024-02-28T04:10:25;20.05;;;8.75;;
38465;SDS011;24244;51.950;5.902;2024-02-28T04:12:51;19.38;;;10.10;;
38465;SDS011;24244;51.950;5.902;2024-02-28T04:15:18;21.40;;;10.88;;
38465;SDS011;24244;51.950;5.902;2024-02-28T04:17:45;22.00;;;10.38;;
38465;SDS011;24244;51.950;5.902;2024-02-28T04:20:12;18.15;;;9.88;;
38465;SDS011;24244;51.950;5.902;2024-02-28T04:22:39;24.50;;;9.27;;
38465;SDS011;24244;51.950;5.902;2024-02-28T04:25:08;19.80;;;9.75;;
38465;SDS011;24244;51.950;5.902;2024-02-28T04:27:36;19.27;;;9.13;;
38465;SDS011;24244;51.950;5.902;2024-02-28T04:30:03;18.52;;;10.73;;
38465;SDS011;24244;51.950;5.902;2024-02-28T04:32:30;23.17;;;10.45;;
38465;SDS011;24244;51.950;5.902;2024-02-28T04:34:57;18.30;;;9.25;;
38465;SDS011;24244;51.950;5.902;2024-02-28T04:37:24;21.35;;;9.77;;
38465;SDS011;24244;51.950;5.902;2024-02-28T04:39:51;20.52;;;9.45;;
38465;SDS011;24244;51.950;5.902;2024-02-28T04:42:19;18.25;;;8.80;;
38465;SDS011;24244;51.950;5.902;2024-02-28T04:44:45;23.48;;;9.80;;
38465;SDS011;24244;51.950;5.902;2024-02-28T04:47:12;23.70;;;10.63;;
38465;SDS011;24244;51.950;5.902;2024-02-28T04:49:40;20.88;;;9.63;;
38465;SDS011;24244;51.950;5.902;2024-02-28T04:52:06;18.08;;;9.73;;
38465;SDS011;24244;51.950;5.902;2024-02-28T04:54:33;22.05;;;10.40;;
38465;SDS011;24244;51.950;5.902;2024-02-28T04:57:00;20.42;;;10.80;;
38465;SDS011;24244;51.950;5.902;2024-02-28T04:59:28;20.65;;;10.30;;
38465;SDS011;24244;51.950;5.902;2024-02-28T05:01:55;21.23;;;9.27;;
38465;SDS011;24244;51.950;5.902;2024-02-28T05:04:22;21.10;;;10.10;;
38465;SDS011;24244;51.950;5.902;2024-02-28T05:06:49;24.48;;;11.15;;
38465;SDS011;24244;51.950;5.902;2024-02-28T05:09:16;22.00;;;11.60;;
38465;SDS011;24244;51.950;5.902;2024-02-28T05:11:43;24.25;;;9.77;;
38465;SDS011;24244;51.950;5.902;2024-02-28T05:14:10;19.67;;;9.52;;
38465;SDS011;24244;51.950;5.902;2024-02-28T05:16:38;18.40;;;9.80;;
38465;SDS011;24244;51.950;5.902;2024-02-28T05:19:05;16.98;;;9.30;;
38465;SDS011;24244;51.950;5.902;2024-02-28T05:21:32;24.23;;;9.63;;
38465;SDS011;24244;51.950;5.902;2024-02-28T05:24:05;18.30;;;9.32;;
38465;SDS011;24244;51.950;5.902;2024-02-28T05:26:32;20.17;;;9.50;;
38465;SDS011;24244;51.950;5.902;2024-02-28T05:29:01;17.58;;;8.98;;
38465;SDS011;24244;51.950;5.902;2024-02-28T05:31:29;15.77;;;9.80;;
38465;SDS011;24244;51.950;5.902;2024-02-28T05:33:59;19.77;;;9.77;;
38465;SDS011;24244;51.950;5.902;2024-02-28T05:36:30;17.10;;;9.57;;
38465;SDS011;24244;51.950;5.902;2024-02-28T05:38:58;17.60;;;8.77;;
38465;SDS011;24244;51.950;5.902;2024-02-28T05:41:26;18.55;;;8.85;;
38465;SDS011;24244;51.950;5.902;2024-02-28T05:43:53;15.45;;;8.35;;
38465;SDS011;24244;51.950;5.902;2024-02-28T05:46:19;18.23;;;8.45;;
38465;SDS011;24244;51.950;5.902;2024-02-28T05:48:48;15.40;;;8.48;;
38465;SDS011;24244;51.950;5.902;2024-02-28T05:51:16;16.38;;;8.90;;
38465;SDS011;24244;51.950;5.902;2024-02-28T05:53:43;15.88;;;8.25;;
38465;SDS011;24244;51.950;5.902;2024-02-28T05:56:10;15.43;;;8.00;;
38465;SDS011;24244;51.950;5.902;2024-02-28T05:58:40;18.20;;;8.88;;
38465;SDS011;24244;51.950;5.902;2024-02-28T06:01:08;16.45;;;8.88;;
38465;SDS011;24244;51.950;5.902;2024-02-28T06:03:35;16.65;;;9.18;;
38465;SDS011;24244;51.950;5.902;2024-02-28T06:06:02;14.88;;;8.68;;
38465;SDS011;24244;51.950;5.902;2024-02-28T06:08:34;15.15;;;8.35;;
38465;SDS011;24244;51.950;5.902;2024-02-28T06:11:01;16.38;;;8.90;;
38465;SDS011;24244;51.950;5.902;2024-02-28T06:13:29;17.55;;;10.35;;
38465;SDS011;24244;51.950;5.902;2024-02-28T06:15:56;16.25;;;7.60;;
38465;SDS011;24244;51.950;5.902;2024-02-28T06:18:23;14.98;;;8.45;;
38465;SDS011;24244;51.950;5.902;2024-02-28T06:20:53;13.68;;;7.68;;
38465;SDS011;24244;51.950;5.902;2024-02-28T06:23:20;14.27;;;8.20;;
38465;SDS011;24244;51.950;5.902;2024-02-28T06:25:55;13.20;;;8.02;;
38465;SDS011;24244;51.950;5.902;2024-02-28T06:28:22;16.85;;;8.60;;
38465;SDS011;24244;51.950;5.902;2024-02-28T06:30:49;14.38;;;9.07;;
38465;SDS011;24244;51.950;5.902;2024-02-28T06:33:16;13.68;;;7.80;;
38465;SDS011;24244;51.950;5.902;2024-02-28T06:35:43;15.10;;;9.45;;
38465;SDS011;24244;51.950;5.902;2024-02-28T06:38:10;16.23;;;8.88;;
38465;SDS011;24244;51.950;5.902;2024-02-28T06:40:37;14.82;;;8.15;;
38465;SDS011;24244;51.950;5.902;2024-02-28T06:43:05;15.07;;;8.10;;
38465;SDS011;24244;51.950;5.902;2024-02-28T06:45:32;14.52;;;8.35;;
38465;SDS011;24244;51.950;5.902;2024-02-28T06:47:59;19.67;;;9.43;;
38465;SDS011;24244;51.950;5.902;2024-02-28T06:50:26;14.32;;;8.25;;
38465;SDS011;24244;51.950;5.902;2024-02-28T06:52:53;15.60;;;8.65;;
38465;SDS011;24244;51.950;5.902;2024-02-28T06:55:20;13.65;;;8.48;;
38465;SDS011;24244;51.950;5.902;2024-02-28T06:57:47;16.15;;;8.85;;
38465;SDS011;24244;51.950;5.902;2024-02-28T07:00:16;16.20;;;9.85;;
38465;SDS011;24244;51.950;5.902;2024-02-28T07:02:46;16.45;;;9.18;;
38465;SDS011;24244;51.950;5.902;2024-02-28T07:05:12;17.83;;;9.13;;
38465;SDS011;24244;51.950;5.902;2024-02-28T07:07:39;14.27;;;8.57;;
38465;SDS011;24244;51.950;5.902;2024-02-28T07:10:06;15.75;;;9.23;;
38465;SDS011;24244;51.950;5.902;2024-02-28T07:12:33;15.18;;;8.82;;
38465;SDS011;24244;51.950;5.902;2024-02-28T07:15:00;17.70;;;9.40;;
38465;SDS011;24244;51.950;5.902;2024-02-28T07:17:28;17.10;;;10.27;;
38465;SDS011;24244;51.950;5.902;2024-02-28T07:19:55;15.82;;;8.23;;
38465;SDS011;24244;51.950;5.902;2024-02-28T07:22:22;14.95;;;9.52;;
38465;SDS011;24244;51.950;5.902;2024-02-28T07:24:48;16.77;;;9.50;;
38465;SDS011;24244;51.950;5.902;2024-02-28T07:27:15;15.45;;;9.68;;
38465;SDS011;24244;51.950;5.902;2024-02-28T07:29:42;19.27;;;10.05;;
38465;SDS011;24244;51.950;5.902;2024-02-28T07:32:10;17.92;;;9.95;;
38465;SDS011;24244;51.950;5.902;2024-02-28T07:34:38;17.33;;;10.20;;
38465;SDS011;24244;51.950;5.902;2024-02-28T07:37:05;16.88;;;9.73;;
38465;SDS011;24244;51.950;5.902;2024-02-28T07:39:32;20.25;;;9.60;;
38465;SDS011;24244;51.950;5.902;2024-02-28T07:41:59;18.55;;;9.00;;
38465;SDS011;24244;51.950;5.902;2024-02-28T07:44:26;19.08;;;11.15;;
38465;SDS011;24244;51.950;5.902;2024-02-28T07:46:53;18.25;;;10.80;;
38465;SDS011;24244;51.950;5.902;2024-02-28T07:49:19;18.13;;;10.68;;
38465;SDS011;24244;51.950;5.902;2024-02-28T07:51:47;19.40;;;10.18;;
38465;SDS011;24244;51.950;5.902;2024-02-28T07:54:14;23.45;;;11.68;;
38465;SDS011;24244;51.950;5.902;2024-02-28T07:56:41;25.05;;;12.32;;
38465;SDS011;24244;51.950;5.902;2024-02-28T07:59:08;24.00;;;12.32;;
38465;SDS011;24244;51.950;5.902;2024-02-28T08:01:34;24.45;;;13.10;;
38465;SDS011;24244;51.950;5.902;2024-02-28T08:04:03;31.20;;;16.27;;
38465;SDS011;24244;51.950;5.902;2024-02-28T08:06:29;29.35;;;14.38;;
38465;SDS011;24244;51.950;5.902;2024-02-28T08:08:58;25.95;;;12.65;;
38465;SDS011;24244;51.950;5.902;2024-02-28T08:11:25;27.00;;;13.57;;
38465;SDS011;24244;51.950;5.902;2024-02-28T08:13:52;29.58;;;13.30;;
38465;SDS011;24244;51.950;5.902;2024-02-28T08:16:19;26.95;;;13.40;;
38465;SDS011;24244;51.950;5.902;2024-02-28T08:18:45;29.48;;;13.85;;
38465;SDS011;24244;51.950;5.902;2024-02-28T08:21:12;27.38;;;13.27;;
38465;SDS011;24244;51.950;5.902;2024-02-28T08:23:39;26.70;;;13.73;;
38465;SDS011;24244;51.950;5.902;2024-02-28T08:26:07;30.00;;;14.07;;
38465;SDS011;24244;51.950;5.902;2024-02-28T08:28:34;27.02;;;13.70;;
38465;SDS011;24244;51.950;5.902;2024-02-28T08:31:01;28.30;;;13.55;;
38465;SDS011;24244;51.950;5.902;2024-02-28T08:33:27;26.55;;;13.52;;
38465;SDS011;24244;51.950;5.902;2024-02-28T08:35:55;30.00;;;13.60;;
38465;SDS011;24244;51.950;5.902;2024-02-28T08:38:21;28.25;;;12.95;;
38465;SDS011;24244;51.950;5.902;2024-02-28T08:40:48;27.70;;;14.50;;
38465;SDS011;24244;51.950;5.902;2024-02-28T08:43:16;31.08;;;13.77;;
38465;SDS011;24244;51.950;5.902;2024-02-28T08:45:43;27.13;;;13.55;;
38465;SDS011;24244;51.950;5.902;2024-02-28T08:48:10;24.75;;;11.82;;
38465;SDS011;24244;51.950;5.902;2024-02-28T08:50:37;30.45;;;14.50;;
38465;SDS011;24244;51.950;5.902;2024-02-28T08:53:03;27.65;;;13.45;;
38465;SDS011;24244;51.950;5.902;2024-02-28T08:55:30;26.02;;;12.27;;
38465;SDS011;24244;51.950;5.902;2024-02-28T08:57:57;27.02;;;13.25;;
38465;SDS011;24244;51.950;5.902;2024-02-28T09:00:26;29.30;;;12.60;;
38465;SDS011;24244;51.950;5.902;2024-02-28T09:02:53;28.55;;;14.30;;
38465;SDS011;24244;51.950;5.902;2024-02-28T09:05:20;29.35;;;14.23;;
38465;SDS011;24244;51.950;5.902;2024-02-28T09:07:46;29.10;;;13.32;;
38465;SDS011;24244;51.950;5.902;2024-02-28T09:10:17;25.65;;;12.82;;
38465;SDS011;24244;51.950;5.902;2024-02-28T09:12:50;27.38;;;14.10;;
38465;SDS011;24244;51.950;5.902;2024-02-28T09:15:17;27.75;;;14.23;;
38465;SDS011;24244;51.950;5.902;2024-02-28T09:17:46;28.67;;;13.68;;
38465;SDS011;24244;51.950;5.902;2024-02-28T09:20:12;29.63;;;14.23;;
38465;SDS011;24244;51.950;5.902;2024-02-28T09:22:39;26.73;;;12.88;;
38465;SDS011;24244;51.950;5.902;2024-02-28T09:25:06;30.75;;;14.10;;
38465;SDS011;24244;51.950;5.902;2024-02-28T09:27:35;32.55;;;14.30;;
38465;SDS011;24244;51.950;5.902;2024-02-28T09:30:03;34.10;;;15.30;;
38465;SDS011;24244;51.950;5.902;2024-02-28T09:32:30;27.50;;;13.23;;
38465;SDS011;24244;51.950;5.902;2024-02-28T09:34:58;26.13;;;14.10;;
38465;SDS011;24244;51.950;5.902;2024-02-28T09:37:25;29.40;;;15.63;;
38465;SDS011;24244;51.950;5.902;2024-02-28T09:39:52;28.92;;;13.68;;
38465;SDS011;24244;51.950;5.902;2024-02-28T09:42:19;28.92;;;14.07;;
38465;SDS011;24244;51.950;5.902;2024-02-28T09:44:47;29.80;;;15.15;;
38465;SDS011;24244;51.950;5.902;2024-02-28T09:47:14;27.73;;;14.88;;
38465;SDS011;24244;51.950;5.902;2024-02-28T09:49:41;31.52;;;15.23;;
38465;SDS011;24244;51.950;5.902;2024-02-28T09:52:10;25.50;;;13.90;;
38465;SDS011;24244;51.950;5.902;2024-02-28T09:54:37;29.98;;;14.27;;
38465;SDS011;24244;51.950;5.902;2024-02-28T09:57:04;29.15;;;15.88;;
38465;SDS011;24244;51.950;5.902;2024-02-28T09:59:32;30.30;;;16.45;;
38465;SDS011;24244;51.950;5.902;2024-02-28T10:02:17;32.38;;;15.65;;
38465;SDS011;24244;51.950;5.902;2024-02-28T10:04:47;34.55;;;17.55;;
38465;SDS011;24244;51.950;5.902;2024-02-28T10:07:15;33.45;;;16.50;;
38465;SDS011;24244;51.950;5.902;2024-02-28T10:09:43;31.00;;;15.32;;
38465;SDS011;24244;51.950;5.902;2024-02-28T10:12:10;32.45;;;15.48;;
38465;SDS011;24244;51.950;5.902;2024-02-28T10:14:37;32.10;;;18.73;;
38465;SDS011;24244;51.950;5.902;2024-02-28T10:17:04;35.50;;;16.88;;
38465;SDS011;24244;51.950;5.902;2024-02-28T10:19:31;33.92;;;14.30;;
38465;SDS011;24244;51.950;5.902;2024-02-28T10:21:58;35.28;;;19.67;;
38465;SDS011;24244;51.950;5.902;2024-02-28T10:24:27;34.67;;;17.98;;
38465;SDS011;24244;51.950;5.902;2024-02-28T10:26:54;33.58;;;16.05;;
38465;SDS011;24244;51.950;5.902;2024-02-28T10:29:24;34.38;;;15.98;;
38465;SDS011;24244;51.950;5.902;2024-02-28T10:31:51;32.53;;;15.68;;
38465;SDS011;24244;51.950;5.902;2024-02-28T10:34:18;33.72;;;18.48;;
38465;SDS011;24244;51.950;5.902;2024-02-28T10:36:45;36.35;;;17.42;;
38465;SDS011;24244;51.950;5.902;2024-02-28T10:39:13;34.92;;;18.10;;
38465;SDS011;24244;51.950;5.902;2024-02-28T10:41:42;32.63;;;15.20;;
38465;SDS011;24244;51.950;5.902;2024-02-28T10:44:11;33.05;;;15.85;;
38465;SDS011;24244;51.950;5.902;2024-02-28T10:46:39;30.23;;;14.88;;
38465;SDS011;24244;51.950;5.902;2024-02-28T10:49:06;31.83;;;14.98;;
38465;SDS011;24244;51.950;5.902;2024-02-28T10:51:35;32.53;;;15.20;;
38465;SDS011;24244;51.950;5.902;2024-02-28T10:54:06;31.08;;;15.10;;
38465;SDS011;24244;51.950;5.902;2024-02-28T10:56:39;28.83;;;14.73;;
38465;SDS011;24244;51.950;5.902;2024-02-28T10:59:09;30.95;;;14.27;;
38465;SDS011;24244;51.950;5.902;2024-02-28T11:01:38;30.60;;;16.08;;
38465;SDS011;24244;51.950;5.902;2024-02-28T11:04:09;34.28;;;16.95;;
38465;SDS011;24244;51.950;5.902;2024-02-28T11:06:46;29.08;;;14.07;;
38465;SDS011;24244;51.950;5.902;2024-02-28T11:11:45;29.15;;;14.30;;
38465;SDS011;24244;51.950;5.902;2024-02-28T11:14:15;31.10;;;15.02;;
38465;SDS011;24244;51.950;5.902;2024-02-28T11:16:42;27.80;;;15.95;;
38465;SDS011;24244;51.950;5.902;2024-02-28T11:19:19;33.47;;;15.35;;
38465;SDS011;24244;51.950;5.902;2024-02-28T11:21:51;30.13;;;16.20;;
38465;SDS011;24244;51.950;5.902;2024-02-28T11:24:22;28.63;;;15.45;;
38465;SDS011;24244;51.950;5.902;2024-02-28T11:26:49;31.02;;;15.10;;
38465;SDS011;24244;51.950;5.902;2024-02-28T11:29:22;29.83;;;15.57;;
38465;SDS011;24244;51.950;5.902;2024-02-28T11:31:51;30.08;;;15.68;;
38465;SDS011;24244;51.950;5.902;2024-02-28T11:34:18;30.52;;;14.98;;
38465;SDS011;24244;51.950;5.902;2024-02-28T11:36:46;29.75;;;14.27;;
38465;SDS011;24244;51.950;5.902;2024-02-28T11:39:14;27.90;;;14.82;;
38465;SDS011;24244;51.950;5.902;2024-02-28T11:41:41;30.42;;;15.73;;
38465;SDS011;24244;51.950;5.902;2024-02-28T11:44:10;31.48;;;14.73;;
38465;SDS011;24244;51.950;5.902;2024-02-28T11:46:38;33.90;;;16.58;;
38465;SDS011;24244;51.950;5.902;2024-02-28T11:49:05;31.00;;;16.48;;
38465;SDS011;24244;51.950;5.902;2024-02-28T11:51:32;32.17;;;16.38;;
38465;SDS011;24244;51.950;5.902;2024-02-28T11:54:00;30.77;;;15.85;;
38465;SDS011;24244;51.950;5.902;2024-02-28T11:56:27;28.92;;;15.27;;
38465;SDS011;24244;51.950;5.902;2024-02-28T11:58:54;33.05;;;17.65;;
38465;SDS011;24244;51.950;5.902;2024-02-28T12:01:34;34.55;;;18.52;;
38465;SDS011;24244;51.950;5.902;2024-02-28T12:04:04;35.47;;;16.65;;
38465;SDS011;24244;51.950;5.902;2024-02-28T12:06:33;29.65;;;16.23;;
38465;SDS011;24244;51.950;5.902;2024-02-28T12:09:01;32.53;;;16.70;;
38465;SDS011;24244;51.950;5.902;2024-02-28T12:11:29;31.83;;;15.45;;
38465;SDS011;24244;51.950;5.902;2024-02-28T12:13:56;33.75;;;15.23;;
38465;SDS011;24244;51.950;5.902;2024-02-28T12:16:23;31.80;;;17.02;;
38465;SDS011;24244;51.950;5.902;2024-02-28T12:18:51;30.92;;;15.95;;
38465;SDS011;24244;51.950;5.902;2024-02-28T12:21:19;32.30;;;16.00;;
38465;SDS011;24244;51.950;5.902;2024-02-28T12:23:47;30.50;;;15.25;;
38465;SDS011;24244;51.950;5.902;2024-02-28T12:26:16;31.77;;;16.77;;
38465;SDS011;24244;51.950;5.902;2024-02-28T12:28:46;30.80;;;14.73;;
38465;SDS011;24244;51.950;5.902;2024-02-28T12:31:13;29.40;;;15.70;;
38465;SDS011;24244;51.950;5.902;2024-02-28T12:33:40;28.55;;;14.35;;
38465;SDS011;24244;51.950;5.902;2024-02-28T12:36:08;30.92;;;15.25;;
38465;SDS011;24244;51.950;5.902;2024-02-28T12:38:37;31.75;;;15.35;;
38465;SDS011;24244;51.950;5.902;2024-02-28T12:41:03;29.10;;;14.85;;
38465;SDS011;24244;51.950;5.902;2024-02-28T12:43:30;28.40;;;14.63;;
38465;SDS011;24244;51.950;5.902;2024-02-28T12:45:58;28.90;;;14.57;;
38465;SDS011;24244;51.950;5.902;2024-02-28T12:48:25;32.97;;;16.10;;
38465;SDS011;24244;51.950;5.902;2024-02-28T12:50:52;30.13;;;15.73;;
38465;SDS011;24244;51.950;5.902;2024-02-28T12:53:19;28.30;;;16.05;;
38465;SDS011;24244;51.950;5.902;2024-02-28T12:55:47;28.63;;;16.00;;
38465;SDS011;24244;51.950;5.902;2024-02-28T12:58:14;24.80;;;13.30;;
38465;SDS011;24244;51.950;5.902;2024-02-28T13:00:41;27.42;;;14.43;;
38465;SDS011;24244;51.950;5.902;2024-02-28T13:03:08;28.05;;;15.48;;
38465;SDS011;24244;51.950;5.902;2024-02-28T13:05:35;29.92;;;15.73;;
38465;SDS011;24244;51.950;5.902;2024-02-28T13:08:02;26.05;;;14.45;;
38465;SDS011;24244;51.950;5.902;2024-02-28T13:10:30;29.17;;;15.13;;
38465;SDS011;24244;51.950;5.902;2024-02-28T13:12:58;28.63;;;14.93;;
38465;SDS011;24244;51.950;5.902;2024-02-28T13:15:25;31.13;;;16.88;;
38465;SDS011;24244;51.950;5.902;2024-02-28T13:17:52;27.45;;;14.32;;
38465;SDS011;24244;51.950;5.902;2024-02-28T13:20:19;31.20;;;14.65;;
38465;SDS011;24244;51.950;5.902;2024-02-28T13:22:45;32.42;;;15.70;;
38465;SDS011;24244;51.950;5.902;2024-02-28T13:25:13;29.55;;;15.20;;
38465;SDS011;24244;51.950;5.902;2024-02-28T13:27:40;31.58;;;15.60;;
38465;SDS011;24244;51.950;5.902;2024-02-28T13:30:09;30.33;;;14.70;;
38465;SDS011;24244;51.950;5.902;2024-02-28T13:32:36;30.60;;;15.15;;
38465;SDS011;24244;51.950;5.902;2024-02-28T13:35:03;24.83;;;13.93;;
38465;SDS011;24244;51.950;5.902;2024-02-28T13:37:30;30.05;;;14.52;;
38465;SDS011;24244;51.950;5.902;2024-02-28T13:39:59;29.73;;;16.23;;
38465;SDS011;24244;51.950;5.902;2024-02-28T13:42:26;30.50;;;13.73;;
38465;SDS011;24244;51.950;5.902;2024-02-28T13:44:53;26.60;;;14.23;;
38465;SDS011;24244;51.950;5.902;2024-02-28T13:47:21;26.75;;;13.55;;
38465;SDS011;24244;51.950;5.902;2024-02-28T13:49:50;27.20;;;15.43;;
38465;SDS011;24244;51.950;5.902;2024-02-28T13:52:16;28.48;;;14.30;;
38465;SDS011;24244;51.950;5.902;2024-02-28T13:54:43;23.15;;;12.38;;
38465;SDS011;24244;51.950;5.902;2024-02-28T13:57:11;25.23;;;11.55;;
38465;SDS011;24244;51.950;5.902;2024-02-28T13:59:38;27.80;;;15.57;;
38465;SDS011;24244;51.950;5.902;2024-02-28T14:02:05;25.15;;;12.65;;
38465;SDS011;24244;51.950;5.902;2024-02-28T14:04:36;21.60;;;13.55;;
38465;SDS011;24244;51.950;5.902;2024-02-28T14:07:04;27.70;;;15.07;;
38465;SDS011;24244;51.950;5.902;2024-02-28T14:09:31;28.92;;;15.73;;
38465;SDS011;24244;51.950;5.902;2024-02-28T14:11:58;25.38;;;12.05;;
38465;SDS011;24244;51.950;5.902;2024-02-28T14:14:25;29.02;;;14.15;;
38465;SDS011;24244;51.950;5.902;2024-02-28T14:16:51;28.08;;;14.48;;
38465;SDS011;24244;51.950;5.902;2024-02-28T14:19:19;28.08;;;14.43;;
38465;SDS011;24244;51.950;5.902;2024-02-28T14:21:47;26.70;;;14.65;;
38465;SDS011;24244;51.950;5.902;2024-02-28T14:24:14;29.38;;;13.88;;
38465;SDS011;24244;51.950;5.902;2024-02-28T14:26:45;30.65;;;15.40;;
38465;SDS011;24244;51.950;5.902;2024-02-28T14:29:12;28.38;;;14.40;;
38465;SDS011;24244;51.950;5.902;2024-02-28T14:31:38;27.10;;;14.95;;